Weather at Aavahelukka Airport

Public forecast

Using degrees Celsius for public forecast. Weather courtesy of forecast.io.

Closest aviation weather report (METAR) to Aavahelukka Airport

Closest report is Kittilä Airport, 20.8 nm (38.6 km) ENE.

2023/09/29 03:50 (retrieved 17 minutes ago)

EFKT 290350Z AUTO 16009KT 9999 -SHRA OVC001 //////CB 10/09 Q1006

Closest aviation forecast (TAF) to Aavahelukka Airport

Forecast is more than 6 hours old.

Closest forecast is Pangnirtung Airport, 1,931.8 nm (3,577.6 km) NW.

2023/09/28 19:00 (retrieved 9 hours ago)

TAF CYXP 281842Z 2819/2822 25005KT P6SM SCT020 BKN040 TEMPO 2819/2822 BKN020 RMK NXT FCST BY 291300Z